sensor_id;sensor_type;location;lat;lon;timestamp;P1;durP1;ratioP1;P2;durP2;ratioP2
38859;SDS011;24609;48.316;16.174;2023-05-10T00:01:05;3.55;;;3.08;;
38859;SDS011;24609;48.316;16.174;2023-05-10T00:03:30;3.78;;;3.25;;
38859;SDS011;24609;48.316;16.174;2023-05-10T00:05:56;3.90;;;2.92;;
38859;SDS011;24609;48.316;16.174;2023-05-10T00:08:22;5.03;;;3.30;;
38859;SDS011;24609;48.316;16.174;2023-05-10T00:10:48;5.30;;;3.38;;
38859;SDS011;24609;48.316;16.174;2023-05-10T00:13:14;5.00;;;3.40;;
38859;SDS011;24609;48.316;16.174;2023-05-10T00:15:39;6.60;;;3.17;;
38859;SDS011;24609;48.316;16.174;2023-05-10T00:18:05;4.07;;;3.33;;
38859;SDS011;24609;48.316;16.174;2023-05-10T00:20:31;5.05;;;3.20;;
38859;SDS011;24609;48.316;16.174;2023-05-10T00:22:56;3.53;;;2.83;;
38859;SDS011;24609;48.316;16.174;2023-05-10T00:25:22;6.20;;;3.40;;
38859;SDS011;24609;48.316;16.174;2023-05-10T00:27:48;3.90;;;2.95;;
38859;SDS011;24609;48.316;16.174;2023-05-10T00:30:14;4.90;;;3.28;;
38859;SDS011;24609;48.316;16.174;2023-05-10T00:32:41;4.55;;;3.08;;
38859;SDS011;24609;48.316;16.174;2023-05-10T00:35:08;5.00;;;3.08;;
38859;SDS011;24609;48.316;16.174;2023-05-10T00:37:34;3.78;;;3.25;;
38859;SDS011;24609;48.316;16.174;2023-05-10T00:40:00;4.15;;;3.25;;
38859;SDS011;24609;48.316;16.174;2023-05-10T00:42:26;4.50;;;3.38;;
38859;SDS011;24609;48.316;16.174;2023-05-10T00:44:51;4.13;;;3.13;;
38859;SDS011;24609;48.316;16.174;2023-05-10T00:47:17;6.20;;;3.10;;
38859;SDS011;24609;48.316;16.174;2023-05-10T00:49:43;4.00;;;3.58;;
38859;SDS011;24609;48.316;16.174;2023-05-10T00:52:09;3.75;;;3.30;;
38859;SDS011;24609;48.316;16.174;2023-05-10T00:54:35;7.60;;;3.20;;
38859;SDS011;24609;48.316;16.174;2023-05-10T00:57:02;3.72;;;3.25;;
38859;SDS011;24609;48.316;16.174;2023-05-10T00:59:28;5.75;;;3.58;;
38859;SDS011;24609;48.316;16.174;2023-05-10T01:01:54;6.40;;;3.28;;
38859;SDS011;24609;48.316;16.174;2023-05-10T01:04:19;4.22;;;3.35;;
38859;SDS011;24609;48.316;16.174;2023-05-10T01:06:50;6.20;;;3.33;;
38859;SDS011;24609;48.316;16.174;2023-05-10T01:09:17;6.05;;;3.17;;
38859;SDS011;24609;48.316;16.174;2023-05-10T01:11:43;4.05;;;3.30;;
38859;SDS011;24609;48.316;16.174;2023-05-10T01:14:10;5.80;;;4.32;;
38859;SDS011;24609;48.316;16.174;2023-05-10T01:16:37;4.55;;;3.60;;
38859;SDS011;24609;48.316;16.174;2023-05-10T01:19:27;7.18;;;3.67;;
38859;SDS011;24609;48.316;16.174;2023-05-10T01:21:55;5.45;;;3.33;;
38859;SDS011;24609;48.316;16.174;2023-05-10T01:33:33;7.15;;;3.30;;
38859;SDS011;24609;48.316;16.174;2023-05-10T01:36:25;5.88;;;3.70;;
38859;SDS011;24609;48.316;16.174;2023-05-10T01:39:16;4.43;;;3.47;;
38859;SDS011;24609;48.316;16.174;2023-05-10T01:47:32;5.25;;;3.75;;
38859;SDS011;24609;48.316;16.174;2023-05-10T01:50:04;5.43;;;3.58;;
38859;SDS011;24609;48.316;16.174;2023-05-10T01:52:38;5.90;;;3.70;;
38859;SDS011;24609;48.316;16.174;2023-05-10T01:55:09;4.80;;;3.40;;
38859;SDS011;24609;48.316;16.174;2023-05-10T01:57:39;7.55;;;3.55;;
38859;SDS011;24609;48.316;16.174;2023-05-10T02:00:07;4.72;;;3.55;;
38859;SDS011;24609;48.316;16.174;2023-05-10T02:02:38;6.95;;;4.03;;
38859;SDS011;24609;48.316;16.174;2023-05-10T02:05:07;5.35;;;3.67;;
38859;SDS011;24609;48.316;16.174;2023-05-10T02:07:35;4.10;;;3.53;;
38859;SDS011;24609;48.316;16.174;2023-05-10T02:10:02;7.15;;;3.95;;
38859;SDS011;24609;48.316;16.174;2023-05-10T02:12:36;8.20;;;3.95;;
38859;SDS011;24609;48.316;16.174;2023-05-10T02:15:04;5.57;;;3.72;;
38859;SDS011;24609;48.316;16.174;2023-05-10T02:17:32;4.70;;;3.55;;
38859;SDS011;24609;48.316;16.174;2023-05-10T02:19:59;6.63;;;4.25;;
38859;SDS011;24609;48.316;16.174;2023-05-10T02:22:27;4.72;;;3.85;;
38859;SDS011;24609;48.316;16.174;2023-05-10T02:24:54;5.75;;;3.78;;
38859;SDS011;24609;48.316;16.174;2023-05-10T02:27:23;7.05;;;4.57;;
38859;SDS011;24609;48.316;16.174;2023-05-10T02:29:50;5.97;;;3.70;;
38859;SDS011;24609;48.316;16.174;2023-05-10T02:32:17;6.63;;;3.95;;
38859;SDS011;24609;48.316;16.174;2023-05-10T02:34:44;9.38;;;4.05;;
38859;SDS011;24609;48.316;16.174;2023-05-10T02:37:14;5.70;;;4.00;;
38859;SDS011;24609;48.316;16.174;2023-05-10T02:39:41;5.95;;;4.05;;
38859;SDS011;24609;48.316;16.174;2023-05-10T02:42:10;5.95;;;4.85;;
38859;SDS011;24609;48.316;16.174;2023-05-10T02:44:45;6.13;;;4.55;;
38859;SDS011;24609;48.316;16.174;2023-05-10T02:47:13;5.18;;;4.03;;
38859;SDS011;24609;48.316;16.174;2023-05-10T02:49:39;7.75;;;4.55;;
38859;SDS011;24609;48.316;16.174;2023-05-10T02:52:05;4.95;;;4.40;;
38859;SDS011;24609;48.316;16.174;2023-05-10T02:54:34;6.05;;;4.45;;
38859;SDS011;24609;48.316;16.174;2023-05-10T02:57:08;4.85;;;4.32;;
38859;SDS011;24609;48.316;16.174;2023-05-10T02:59:39;5.55;;;4.43;;
38859;SDS011;24609;48.316;16.174;2023-05-10T03:02:07;5.85;;;4.40;;
38859;SDS011;24609;48.316;16.174;2023-05-10T03:04:34;8.52;;;4.25;;
38859;SDS011;24609;48.316;16.174;2023-05-10T03:06:59;5.07;;;4.35;;
38859;SDS011;24609;48.316;16.174;2023-05-10T03:09:25;6.28;;;4.50;;
38859;SDS011;24609;48.316;16.174;2023-05-10T03:17:22;4.88;;;4.10;;
38859;SDS011;24609;48.316;16.174;2023-05-10T03:19:55;6.57;;;4.60;;
38859;SDS011;24609;48.316;16.174;2023-05-10T03:22:30;8.50;;;4.30;;
38859;SDS011;24609;48.316;16.174;2023-05-10T03:25:04;5.95;;;4.30;;
38859;SDS011;24609;48.316;16.174;2023-05-10T03:27:31;5.18;;;4.20;;
38859;SDS011;24609;48.316;16.174;2023-05-10T03:29:58;5.40;;;4.72;;
38859;SDS011;24609;48.316;16.174;2023-05-10T03:32:26;7.05;;;5.10;;
38859;SDS011;24609;48.316;16.174;2023-05-10T03:34:55;4.38;;;3.97;;
38859;SDS011;24609;48.316;16.174;2023-05-10T03:37:21;7.05;;;4.88;;
38859;SDS011;24609;48.316;16.174;2023-05-10T03:39:46;6.07;;;4.60;;
38859;SDS011;24609;48.316;16.174;2023-05-10T03:42:12;6.07;;;4.35;;
38859;SDS011;24609;48.316;16.174;2023-05-10T03:44:41;7.95;;;4.90;;
38859;SDS011;24609;48.316;16.174;2023-05-10T03:47:06;6.35;;;4.50;;
38859;SDS011;24609;48.316;16.174;2023-05-10T03:49:32;7.00;;;4.30;;
38859;SDS011;24609;48.316;16.174;2023-05-10T03:51:58;7.07;;;5.45;;
38859;SDS011;24609;48.316;16.174;2023-05-10T03:54:23;8.18;;;5.15;;
38859;SDS011;24609;48.316;16.174;2023-05-10T03:56:49;7.45;;;4.60;;
38859;SDS011;24609;48.316;16.174;2023-05-10T03:59:14;8.63;;;4.63;;
38859;SDS011;24609;48.316;16.174;2023-05-10T04:01:40;6.80;;;4.78;;
38859;SDS011;24609;48.316;16.174;2023-05-10T04:04:06;7.07;;;4.70;;
38859;SDS011;24609;48.316;16.174;2023-05-10T04:06:32;8.15;;;4.70;;
38859;SDS011;24609;48.316;16.174;2023-05-10T04:08:57;6.95;;;4.80;;
38859;SDS011;24609;48.316;16.174;2023-05-10T04:11:25;6.53;;;4.80;;
38859;SDS011;24609;48.316;16.174;2023-05-10T04:13:51;6.85;;;4.60;;
38859;SDS011;24609;48.316;16.174;2023-05-10T04:16:17;5.68;;;4.80;;
38859;SDS011;24609;48.316;16.174;2023-05-10T04:18:42;5.90;;;4.63;;
38859;SDS011;24609;48.316;16.174;2023-05-10T04:21:11;6.78;;;4.93;;
38859;SDS011;24609;48.316;16.174;2023-05-10T04:23:38;8.60;;;4.82;;
38859;SDS011;24609;48.316;16.174;2023-05-10T04:26:04;7.78;;;4.75;;
38859;SDS011;24609;48.316;16.174;2023-05-10T04:28:29;6.40;;;4.95;;
38859;SDS011;24609;48.316;16.174;2023-05-10T04:31:05;8.13;;;4.60;;
38859;SDS011;24609;48.316;16.174;2023-05-10T04:33:32;6.28;;;4.30;;
38859;SDS011;24609;48.316;16.174;2023-05-10T04:35:59;5.00;;;4.35;;
38859;SDS011;24609;48.316;16.174;2023-05-10T04:38:25;5.45;;;4.80;;
38859;SDS011;24609;48.316;16.174;2023-05-10T04:40:50;7.35;;;4.70;;
38859;SDS011;24609;48.316;16.174;2023-05-10T04:43:16;6.15;;;4.63;;
38859;SDS011;24609;48.316;16.174;2023-05-10T04:45:42;5.68;;;4.53;;
38859;SDS011;24609;48.316;16.174;2023-05-10T04:48:07;6.55;;;4.47;;
38859;SDS011;24609;48.316;16.174;2023-05-10T04:50:33;7.28;;;4.70;;
38859;SDS011;24609;48.316;16.174;2023-05-10T04:52:59;6.93;;;4.50;;
38859;SDS011;24609;48.316;16.174;2023-05-10T04:55:24;6.40;;;4.32;;
38859;SDS011;24609;48.316;16.174;2023-05-10T04:57:51;7.28;;;5.07;;
38859;SDS011;24609;48.316;16.174;2023-05-10T05:00:18;6.53;;;4.40;;
38859;SDS011;24609;48.316;16.174;2023-05-10T05:02:44;6.03;;;4.32;;
38859;SDS011;24609;48.316;16.174;2023-05-10T05:05:12;8.02;;;4.63;;
38859;SDS011;24609;48.316;16.174;2023-05-10T05:07:38;5.90;;;4.63;;
38859;SDS011;24609;48.316;16.174;2023-05-10T05:10:07;7.10;;;5.13;;
38859;SDS011;24609;48.316;16.174;2023-05-10T05:12:34;8.85;;;5.22;;
38859;SDS011;24609;48.316;16.174;2023-05-10T05:15:00;8.60;;;5.00;;
38859;SDS011;24609;48.316;16.174;2023-05-10T05:17:26;6.57;;;4.40;;
38859;SDS011;24609;48.316;16.174;2023-05-10T05:19:52;8.93;;;4.90;;
38859;SDS011;24609;48.316;16.174;2023-05-10T05:22:17;5.10;;;4.38;;
38859;SDS011;24609;48.316;16.174;2023-05-10T05:24:44;5.07;;;4.57;;
38859;SDS011;24609;48.316;16.174;2023-05-10T05:27:10;8.95;;;5.05;;
38859;SDS011;24609;48.316;16.174;2023-05-10T05:29:36;5.70;;;4.68;;
38859;SDS011;24609;48.316;16.174;2023-05-10T05:32:02;7.88;;;5.10;;
38859;SDS011;24609;48.316;16.174;2023-05-10T05:34:28;5.28;;;4.60;;
38859;SDS011;24609;48.316;16.174;2023-05-10T05:36:53;6.95;;;4.72;;
38859;SDS011;24609;48.316;16.174;2023-05-10T05:39:19;6.05;;;4.72;;
38859;SDS011;24609;48.316;16.174;2023-05-10T05:41:45;6.82;;;4.93;;
38859;SDS011;24609;48.316;16.174;2023-05-10T05:44:11;7.15;;;4.30;;
38859;SDS011;24609;48.316;16.174;2023-05-10T05:46:36;5.53;;;4.45;;
38859;SDS011;24609;48.316;16.174;2023-05-10T05:49:03;8.95;;;5.05;;
38859;SDS011;24609;48.316;16.174;2023-05-10T05:51:28;6.55;;;4.78;;
38859;SDS011;24609;48.316;16.174;2023-05-10T05:53:54;7.20;;;4.68;;
38859;SDS011;24609;48.316;16.174;2023-05-10T05:56:20;6.45;;;4.47;;
38859;SDS011;24609;48.316;16.174;2023-05-10T05:58:49;7.82;;;5.15;;
38859;SDS011;24609;48.316;16.174;2023-05-10T06:01:16;9.43;;;4.90;;
38859;SDS011;24609;48.316;16.174;2023-05-10T06:03:41;6.40;;;4.82;;
38859;SDS011;24609;48.316;16.174;2023-05-10T06:06:07;6.45;;;4.97;;
38859;SDS011;24609;48.316;16.174;2023-05-10T06:08:33;4.90;;;4.38;;
38859;SDS011;24609;48.316;16.174;2023-05-10T06:10:59;7.28;;;4.50;;
38859;SDS011;24609;48.316;16.174;2023-05-10T06:13:25;6.25;;;4.88;;
38859;SDS011;24609;48.316;16.174;2023-05-10T06:15:56;7.60;;;4.70;;
38859;SDS011;24609;48.316;16.174;2023-05-10T06:18:26;8.68;;;5.20;;
38859;SDS011;24609;48.316;16.174;2023-05-10T06:20:52;6.82;;;4.70;;
38859;SDS011;24609;48.316;16.174;2023-05-10T06:23:17;7.43;;;4.80;;
38859;SDS011;24609;48.316;16.174;2023-05-10T06:25:43;6.85;;;4.82;;
38859;SDS011;24609;48.316;16.174;2023-05-10T06:28:09;7.05;;;4.28;;
38859;SDS011;24609;48.316;16.174;2023-05-10T06:30:35;5.47;;;4.65;;
38859;SDS011;24609;48.316;16.174;2023-05-10T06:33:01;8.52;;;4.75;;
38859;SDS011;24609;48.316;16.174;2023-05-10T06:35:27;5.35;;;4.47;;
38859;SDS011;24609;48.316;16.174;2023-05-10T06:37:54;6.75;;;4.22;;
38859;SDS011;24609;48.316;16.174;2023-05-10T06:40:19;6.22;;;4.43;;
38859;SDS011;24609;48.316;16.174;2023-05-10T06:42:46;7.32;;;3.85;;
38859;SDS011;24609;48.316;16.174;2023-05-10T06:45:13;6.63;;;3.63;;
38859;SDS011;24609;48.316;16.174;2023-05-10T06:47:39;4.25;;;3.35;;
38859;SDS011;24609;48.316;16.174;2023-05-10T06:50:06;3.95;;;3.50;;
38859;SDS011;24609;48.316;16.174;2023-05-10T06:52:32;5.57;;;3.78;;
38859;SDS011;24609;48.316;16.174;2023-05-10T06:54:58;4.75;;;3.75;;
38859;SDS011;24609;48.316;16.174;2023-05-10T06:57:24;6.38;;;3.67;;
38859;SDS011;24609;48.316;16.174;2023-05-10T06:59:49;7.22;;;3.58;;
38859;SDS011;24609;48.316;16.174;2023-05-10T07:02:16;8.15;;;4.25;;
38859;SDS011;24609;48.316;16.174;2023-05-10T07:04:42;6.22;;;3.67;;
38859;SDS011;24609;48.316;16.174;2023-05-10T07:07:07;4.90;;;3.92;;
38859;SDS011;24609;48.316;16.174;2023-05-10T07:09:33;3.67;;;3.25;;
38859;SDS011;24609;48.316;16.174;2023-05-10T07:11:59;6.35;;;3.40;;
38859;SDS011;24609;48.316;16.174;2023-05-10T07:14:25;7.55;;;4.03;;
38859;SDS011;24609;48.316;16.174;2023-05-10T07:16:50;8.10;;;4.25;;
38859;SDS011;24609;48.316;16.174;2023-05-10T07:19:16;6.47;;;3.35;;
38859;SDS011;24609;48.316;16.174;2023-05-10T07:21:41;5.05;;;3.30;;
38859;SDS011;24609;48.316;16.174;2023-05-10T07:24:08;7.72;;;3.97;;
38859;SDS011;24609;48.316;16.174;2023-05-10T07:26:34;6.30;;;3.60;;
38859;SDS011;24609;48.316;16.174;2023-05-10T07:29:00;4.68;;;3.15;;
38859;SDS011;24609;48.316;16.174;2023-05-10T07:31:26;5.18;;;2.92;;
38859;SDS011;24609;48.316;16.174;2023-05-10T07:33:52;4.07;;;3.17;;
38859;SDS011;24609;48.316;16.174;2023-05-10T07:36:17;6.32;;;4.03;;
38859;SDS011;24609;48.316;16.174;2023-05-10T07:38:43;6.43;;;3.78;;
38859;SDS011;24609;48.316;16.174;2023-05-10T07:41:09;5.28;;;2.90;;
38859;SDS011;24609;48.316;16.174;2023-05-10T07:43:36;5.55;;;3.10;;
38859;SDS011;24609;48.316;16.174;2023-05-10T07:46:01;5.68;;;3.20;;
38859;SDS011;24609;48.316;16.174;2023-05-10T07:48:27;4.70;;;2.60;;
38859;SDS011;24609;48.316;16.174;2023-05-10T07:50:53;5.75;;;3.15;;
38859;SDS011;24609;48.316;16.174;2023-05-10T07:53:18;7.43;;;3.33;;
38859;SDS011;24609;48.316;16.174;2023-05-10T07:55:44;3.80;;;3.20;;
38859;SDS011;24609;48.316;16.174;2023-05-10T07:58:15;6.45;;;3.63;;
38859;SDS011;24609;48.316;16.174;2023-05-10T08:00:41;4.72;;;3.60;;
38859;SDS011;24609;48.316;16.174;2023-05-10T08:03:07;7.07;;;3.53;;
38859;SDS011;24609;48.316;16.174;2023-05-10T08:05:32;5.18;;;4.00;;
38859;SDS011;24609;48.316;16.174;2023-05-10T08:07:58;4.15;;;3.13;;
38859;SDS011;24609;48.316;16.174;2023-05-10T08:10:24;5.75;;;3.53;;
38859;SDS011;24609;48.316;16.174;2023-05-10T08:12:50;9.20;;;4.18;;
38859;SDS011;24609;48.316;16.174;2023-05-10T08:15:16;6.53;;;3.42;;
38859;SDS011;24609;48.316;16.174;2023-05-10T08:17:42;5.50;;;3.83;;
38859;SDS011;24609;48.316;16.174;2023-05-10T08:20:08;6.00;;;3.42;;
38859;SDS011;24609;48.316;16.174;2023-05-10T08:22:34;4.65;;;3.50;;
38859;SDS011;24609;48.316;16.174;2023-05-10T08:24:59;12.25;;;4.05;;
38859;SDS011;24609;48.316;16.174;2023-05-10T08:27:25;4.50;;;3.33;;
38859;SDS011;24609;48.316;16.174;2023-05-10T08:29:51;4.40;;;3.53;;
38859;SDS011;24609;48.316;16.174;2023-05-10T08:32:17;7.38;;;3.28;;
38859;SDS011;24609;48.316;16.174;2023-05-10T08:34:42;4.47;;;3.47;;
38859;SDS011;24609;48.316;16.174;2023-05-10T08:37:08;6.53;;;3.45;;
38859;SDS011;24609;48.316;16.174;2023-05-10T08:39:35;7.07;;;3.90;;
38859;SDS011;24609;48.316;16.174;2023-05-10T08:42:02;6.05;;;3.50;;
38859;SDS011;24609;48.316;16.174;2023-05-10T08:44:30;5.40;;;3.67;;
38859;SDS011;24609;48.316;16.174;2023-05-10T08:46:57;5.20;;;3.80;;
38859;SDS011;24609;48.316;16.174;2023-05-10T08:49:27;7.40;;;3.97;;
38859;SDS011;24609;48.316;16.174;2023-05-10T08:51:55;6.18;;;4.43;;
38859;SDS011;24609;48.316;16.174;2023-05-10T08:54:24;4.97;;;3.35;;
38859;SDS011;24609;48.316;16.174;2023-05-10T08:56:50;6.30;;;3.88;;
38859;SDS011;24609;48.316;16.174;2023-05-10T08:59:16;6.85;;;3.78;;
38859;SDS011;24609;48.316;16.174;2023-05-10T09:01:42;6.07;;;3.72;;
38859;SDS011;24609;48.316;16.174;2023-05-10T09:04:13;6.35;;;3.60;;
38859;SDS011;24609;48.316;16.174;2023-05-10T09:06:38;6.05;;;3.78;;
38859;SDS011;24609;48.316;16.174;2023-05-10T09:09:04;5.38;;;3.80;;
38859;SDS011;24609;48.316;16.174;2023-05-10T09:11:30;8.98;;;3.15;;
38859;SDS011;24609;48.316;16.174;2023-05-10T09:13:56;6.93;;;3.95;;
38859;SDS011;24609;48.316;16.174;2023-05-10T09:16:22;6.90;;;3.63;;
38859;SDS011;24609;48.316;16.174;2023-05-10T09:18:48;3.53;;;3.03;;
38859;SDS011;24609;48.316;16.174;2023-05-10T09:21:14;7.57;;;3.65;;
38859;SDS011;24609;48.316;16.174;2023-05-10T09:23:44;4.47;;;3.50;;
38859;SDS011;24609;48.316;16.174;2023-05-10T09:26:11;3.42;;;3.10;;
38859;SDS011;24609;48.316;16.174;2023-05-10T09:28:54;5.18;;;3.90;;
38859;SDS011;24609;48.316;16.174;2023-05-10T09:31:21;5.65;;;3.53;;
38859;SDS011;24609;48.316;16.174;2023-05-10T09:33:48;5.07;;;3.08;;
38859;SDS011;24609;48.316;16.174;2023-05-10T09:36:15;4.22;;;3.38;;
38859;SDS011;24609;48.316;16.174;2023-05-10T09:38:51;5.60;;;2.97;;
38859;SDS011;24609;48.316;16.174;2023-05-10T09:41:18;5.45;;;3.15;;
38859;SDS011;24609;48.316;16.174;2023-05-10T09:43:48;6.00;;;3.00;;
38859;SDS011;24609;48.316;16.174;2023-05-10T09:46:17;8.07;;;3.30;;
38859;SDS011;24609;48.316;16.174;2023-05-10T09:48:43;6.10;;;3.42;;
38859;SDS011;24609;48.316;16.174;2023-05-10T09:51:24;6.80;;;3.40;;
38859;SDS011;24609;48.316;16.174;2023-05-10T09:54:10;3.45;;;3.00;;
38859;SDS011;24609;48.316;16.174;2023-05-10T09:56:41;4.25;;;2.88;;
38859;SDS011;24609;48.316;16.174;2023-05-10T09:59:08;3.30;;;2.70;;
38859;SDS011;24609;48.316;16.174;2023-05-10T10:01:36;6.68;;;2.80;;
38859;SDS011;24609;48.316;16.174;2023-05-10T10:04:03;4.05;;;2.45;;
38859;SDS011;24609;48.316;16.174;2023-05-10T10:06:34;4.60;;;2.15;;
38859;SDS011;24609;48.316;16.174;2023-05-10T10:09:05;4.90;;;2.35;;
38859;SDS011;24609;48.316;16.174;2023-05-10T10:11:32;5.50;;;2.60;;
38859;SDS011;24609;48.316;16.174;2023-05-10T10:13:59;2.53;;;1.95;;
38859;SDS011;24609;48.316;16.174;2023-05-10T10:16:25;6.03;;;2.17;;
38859;SDS011;24609;48.316;16.174;2023-05-10T10:18:53;4.15;;;1.85;;
38859;SDS011;24609;48.316;16.174;2023-05-10T10:21:20;3.00;;;2.03;;
38859;SDS011;24609;48.316;16.174;2023-05-10T10:23:46;5.10;;;2.05;;
38859;SDS011;24609;48.316;16.174;2023-05-10T10:26:11;3.53;;;2.13;;
38859;SDS011;24609;48.316;16.174;2023-05-10T10:36:56;3.15;;;1.90;;
38859;SDS011;24609;48.316;16.174;2023-05-10T10:39:23;3.08;;;1.70;;
38859;SDS011;24609;48.316;16.174;2023-05-10T10:41:53;2.47;;;1.58;;
38859;SDS011;24609;48.316;16.174;2023-05-10T10:52:24;4.07;;;1.58;;
38859;SDS011;24609;48.316;16.174;2023-05-10T10:55:06;2.42;;;1.50;;
38859;SDS011;24609;48.316;16.174;2023-05-10T10:57:42;6.75;;;1.77;;
38859;SDS011;24609;48.316;16.174;2023-05-10T11:02:57;2.10;;;1.40;;
38859;SDS011;24609;48.316;16.174;2023-05-10T11:05:40;2.08;;;1.48;;
38859;SDS011;24609;48.316;16.174;2023-05-10T11:08:18;2.85;;;1.25;;
38859;SDS011;24609;48.316;16.174;2023-05-10T11:10:50;2.85;;;1.45;;
38859;SDS011;24609;48.316;16.174;2023-05-10T11:13:21;4.85;;;1.88;;
38859;SDS011;24609;48.316;16.174;2023-05-10T11:15:55;2.85;;;1.33;;
38859;SDS011;24609;48.316;16.174;2023-05-10T11:18:28;3.55;;;1.50;;
38859;SDS011;24609;48.316;16.174;2023-05-10T11:21:01;3.60;;;1.60;;
38859;SDS011;24609;48.316;16.174;2023-05-10T11:23:49;1.60;;;1.50;;
38859;SDS011;24609;48.316;16.174;2023-05-10T11:26:16;2.63;;;1.50;;
38859;SDS011;24609;48.316;16.174;2023-05-10T11:28:43;3.88;;;1.52;;
38859;SDS011;24609;48.316;16.174;2023-05-10T11:31:13;3.67;;;1.58;;
38859;SDS011;24609;48.316;16.174;2023-05-10T11:33:43;2.35;;;1.50;;
38859;SDS011;24609;48.316;16.174;2023-05-10T11:36:10;2.38;;;1.80;;
38859;SDS011;24609;48.316;16.174;2023-05-10T11:38:40;1.80;;;1.63;;
38859;SDS011;24609;48.316;16.174;2023-05-10T11:41:07;2.90;;;1.77;;
38859;SDS011;24609;48.316;16.174;2023-05-10T11:43:38;3.00;;;1.52;;
38859;SDS011;24609;48.316;16.174;2023-05-10T11:46:08;3.10;;;1.48;;
38859;SDS011;24609;48.316;16.174;2023-05-10T11:48:39;4.55;;;1.95;;
38859;SDS011;24609;48.316;16.174;2023-05-10T11:53:32;2.55;;;1.70;;
38859;SDS011;24609;48.316;16.174;2023-05-10T11:56:07;1.63;;;1.45;;
38859;SDS011;24609;48.316;16.174;2023-05-10T11:58:34;6.35;;;1.77;;
38859;SDS011;24609;48.316;16.174;2023-05-10T12:01:01;1.70;;;1.60;;
38859;SDS011;24609;48.316;16.174;2023-05-10T12:03:27;5.32;;;1.67;;
38859;SDS011;24609;48.316;16.174;2023-05-10T12:05:54;3.13;;;1.40;;
38859;SDS011;24609;48.316;16.174;2023-05-10T12:08:24;2.28;;;1.45;;
38859;SDS011;24609;48.316;16.174;2023-05-10T12:10:51;4.45;;;1.63;;
38859;SDS011;24609;48.316;16.174;2023-05-10T12:13:18;1.58;;;1.30;;
38859;SDS011;24609;48.316;16.174;2023-05-10T12:15:45;2.65;;;1.50;;
38859;SDS011;24609;48.316;16.174;2023-05-10T12:18:11;1.67;;;1.50;;
38859;SDS011;24609;48.316;16.174;2023-05-10T12:20:38;1.75;;;1.15;;
38859;SDS011;24609;48.316;16.174;2023-05-10T12:23:05;1.70;;;1.30;;
38859;SDS011;24609;48.316;16.174;2023-05-10T12:25:34;2.47;;;1.40;;
38859;SDS011;24609;48.316;16.174;2023-05-10T12:28:04;1.98;;;1.20;;
38859;SDS011;24609;48.316;16.174;2023-05-10T12:30:33;3.22;;;1.50;;
38859;SDS011;24609;48.316;16.174;2023-05-10T12:33:00;1.63;;;1.40;;
38859;SDS011;24609;48.316;16.174;2023-05-10T12:35:44;1.60;;;1.25;;
38859;SDS011;24609;48.316;16.174;2023-05-10T12:38:27;4.65;;;1.40;;
38859;SDS011;24609;48.316;16.174;2023-05-10T12:40:58;3.08;;;1.40;;
38859;SDS011;24609;48.316;16.174;2023-05-10T12:43:28;7.28;;;1.77;;
38859;SDS011;24609;48.316;16.174;2023-05-10T12:45:54;2.17;;;1.50;;
38859;SDS011;24609;48.316;16.174;2023-05-10T12:48:19;2.42;;;1.27;;
38859;SDS011;24609;48.316;16.174;2023-05-10T12:50:46;1.83;;;1.58;;
38859;SDS011;24609;48.316;16.174;2023-05-10T12:53:13;2.22;;;1.20;;
38859;SDS011;24609;48.316;16.174;2023-05-10T12:55:40;1.47;;;1.33;;
38859;SDS011;24609;48.316;16.174;2023-05-10T12:58:06;1.98;;;1.33;;
38859;SDS011;24609;48.316;16.174;2023-05-10T13:00:32;2.30;;;1.50;;
38859;SDS011;24609;48.316;16.174;2023-05-10T13:02:57;2.55;;;1.30;;
38859;SDS011;24609;48.316;16.174;2023-05-10T13:05:23;1.63;;;1.33;;
38859;SDS011;24609;48.316;16.174;2023-05-10T13:07:49;1.60;;;1.20;;
38859;SDS011;24609;48.316;16.174;2023-05-10T13:10:15;2.45;;;1.40;;
38859;SDS011;24609;48.316;16.174;2023-05-10T13:12:41;1.98;;;1.40;;
38859;SDS011;24609;48.316;16.174;2023-05-10T13:15:07;4.72;;;1.30;;
38859;SDS011;24609;48.316;16.174;2023-05-10T13:17:33;2.95;;;1.42;;
38859;SDS011;24609;48.316;16.174;2023-05-10T13:19:58;1.85;;;1.30;;
38859;SDS011;24609;48.316;16.174;2023-05-10T13:22:24;1.95;;;1.20;;
38859;SDS011;24609;48.316;16.174;2023-05-10T13:24:50;1.58;;;1.23;;
38859;SDS011;24609;48.316;16.174;2023-05-10T13:27:16;1.88;;;1.30;;
38859;SDS011;24609;48.316;16.174;2023-05-10T13:29:41;3.25;;;1.33;;
38859;SDS011;24609;48.316;16.174;2023-05-10T13:32:07;3.63;;;1.30;;
38859;SDS011;24609;48.316;16.174;2023-05-10T13:34:33;3.38;;;1.40;;
38859;SDS011;24609;48.316;16.174;2023-05-10T13:37:00;2.22;;;1.50;;
38859;SDS011;24609;48.316;16.174;2023-05-10T13:39:26;5.55;;;1.50;;
38859;SDS011;24609;48.316;16.174;2023-05-10T13:41:52;4.28;;;1.58;;
38859;SDS011;24609;48.316;16.174;2023-05-10T13:44:17;4.45;;;1.98;;
38859;SDS011;24609;48.316;16.174;2023-05-10T13:46:45;3.42;;;1.30;;
38859;SDS011;24609;48.316;16.174;2023-05-10T13:49:11;5.28;;;1.52;;
38859;SDS011;24609;48.316;16.174;2023-05-10T13:51:37;2.63;;;1.50;;
38859;SDS011;24609;48.316;16.174;2023-05-10T13:54:03;1.90;;;1.70;;
38859;SDS011;24609;48.316;16.174;2023-05-10T13:56:28;4.07;;;2.05;;
38859;SDS011;24609;48.316;16.174;2023-05-10T13:58:55;3.03;;;1.60;;
38859;SDS011;24609;48.316;16.174;2023-05-10T14:01:22;2.17;;;1.70;;
38859;SDS011;24609;48.316;16.174;2023-05-10T14:03:48;2.40;;;1.50;;
38859;SDS011;24609;48.316;16.174;2023-05-10T14:06:13;2.22;;;1.45;;
38859;SDS011;24609;48.316;16.174;2023-05-10T14:08:39;5.35;;;1.98;;
38859;SDS011;24609;48.316;16.174;2023-05-10T14:11:05;2.03;;;1.80;;
38859;SDS011;24609;48.316;16.174;2023-05-10T14:13:30;2.90;;;1.70;;
38859;SDS011;24609;48.316;16.174;2023-05-10T14:15:56;2.38;;;1.48;;
38859;SDS011;24609;48.316;16.174;2023-05-10T14:18:23;4.63;;;1.80;;
38859;SDS011;24609;48.316;16.174;2023-05-10T14:20:49;3.47;;;1.67;;
38859;SDS011;24609;48.316;16.174;2023-05-10T14:23:15;3.58;;;1.70;;
38859;SDS011;24609;48.316;16.174;2023-05-10T14:25:40;3.58;;;1.70;;
38859;SDS011;24609;48.316;16.174;2023-05-10T14:28:06;3.03;;;1.70;;
38859;SDS011;24609;48.316;16.174;2023-05-10T14:30:32;3.05;;;1.60;;
38859;SDS011;24609;48.316;16.174;2023-05-10T14:32:59;3.38;;;1.58;;
38859;SDS011;24609;48.316;16.174;2023-05-10T14:35:27;3.72;;;1.98;;
38859;SDS011;24609;48.316;16.174;2023-05-10T14:37:53;3.25;;;1.77;;
38859;SDS011;24609;48.316;16.174;2023-05-10T14:40:19;2.30;;;1.77;;
38859;SDS011;24609;48.316;16.174;2023-05-10T14:42:45;4.22;;;1.90;;
38859;SDS011;24609;48.316;16.174;2023-05-10T14:45:11;1.88;;;1.60;;
38859;SDS011;24609;48.316;16.174;2023-05-10T14:47:37;2.42;;;1.65;;
38859;SDS011;24609;48.316;16.174;2023-05-10T14:50:03;2.20;;;1.80;;
38859;SDS011;24609;48.316;16.174;2023-05-10T14:52:29;3.10;;;1.42;;
38859;SDS011;24609;48.316;16.174;2023-05-10T14:54:55;2.15;;;1.60;;
38859;SDS011;24609;48.316;16.174;2023-05-10T14:57:22;3.50;;;1.50;;
38859;SDS011;24609;48.316;16.174;2023-05-10T14:59:47;3.90;;;1.50;;
38859;SDS011;24609;48.316;16.174;2023-05-10T15:02:13;3.10;;;1.63;;
38859;SDS011;24609;48.316;16.174;2023-05-10T15:04:38;2.17;;;1.40;;
38859;SDS011;24609;48.316;16.174;2023-05-10T15:07:04;1.98;;;1.45;;
38859;SDS011;24609;48.316;16.174;2023-05-10T15:09:30;3.67;;;1.42;;
38859;SDS011;24609;48.316;16.174;2023-05-10T15:11:56;3.95;;;1.50;;
38859;SDS011;24609;48.316;16.174;2023-05-10T15:14:22;2.33;;;1.40;;
38859;SDS011;24609;48.316;16.174;2023-05-10T15:16:48;2.53;;;1.48;;